Time;durP1;ratioP1;P1;durP2;ratioP2;P2;SDS_P1;SDS_P2;PMS_P1;PMS_P2;Temp;Humidity;BMP_temperature;BMP_pressure;BME280_temperature;BME280_humidity;BME280_pressure;Samples;Min_cycle;Max_cycle;Signal;HPM_P1;HPM_P2
2023/08/02 00:01:58;;;;;;;;;;;;;;;;;;5075860;28;20047;-77
2023/08/02 00:04:24;;;;;;;13.27;4.25;;;;;;;;;;5086502;28;20528;-77
2023/08/02 00:06:50;;;;;;;;;;;;;;;;;;5115259;27;20059;-78
2023/08/02 00:09:16;;;;;;;13.02;4.10;;;;;;;;;;5093768;27;19923;-82
2023/08/02 00:11:42;;;;;;;;;;;;;;;;;;5097163;28;20051;-77
2023/08/02 00:14:08;;;;;;;11.32;4.13;;;;;;;;;;5115749;27;19930;-77
2023/08/02 00:16:34;;;;;;;;;;;;;;;;;;5117288;27;21094;-77
2023/08/02 00:19:00;;;;;;;12.38;4.70;;;;;;;;;;5113626;27;20367;-77
2023/08/02 00:21:26;;;;;;;18.08;4.53;;;;;;;;;;5112850;27;20081;-78
2023/08/02 00:23:52;;;;;;;;;;;;;;;;;;5115652;27;20071;-78
2023/08/02 00:26:19;;;;;;;13.53;4.23;;;;;;;;;;5099310;27;20000;-78
2023/08/02 00:28:45;;;;;;;;;;;;;;;;;;5116057;27;20122;-78
2023/08/02 00:31:11;;;;;;;16.08;4.93;;;;;;;;;;5116507;27;19920;-78
2023/08/02 00:33:37;;;;;;;;;;;;;;;;;;5099563;27;20054;-79
2023/08/02 00:36:03;;;;;;;11.30;4.90;;;;;;;;;;5116841;27;19919;-77
2023/08/02 00:38:29;;;;;;;;;;;;;;;;;;5115784;27;20087;-77
2023/08/02 00:41:01;;;;;;;13.45;5.07;;;;;;;;;;5116610;27;19919;-78
2023/08/02 00:43:27;;;;;;;15.30;4.72;;;;;;;;;;5105535;28;20047;-77
2023/08/02 00:45:53;;;;;;;16.27;5.47;;;;;;;;;;5093412;27;20079;-76
2023/08/02 00:48:19;;;;;;;;;;;;;;;;;;5109440;28;20047;-82
2023/08/02 00:50:45;;;;;;;18.60;4.78;;;;;;;;;;5105824;27;19923;-77
2023/08/02 00:53:11;;;;;;;;;;;;;;;;;;5122109;27;20430;-77
2023/08/02 00:55:39;;;;;;;14.05;4.93;;;;;;;;;;5107753;27;19919;-79
2023/08/02 00:58:05;;;;;;;22.33;5.25;;;;;;;;;;5117889;27;20043;-77
2023/08/02 01:00:31;;;;;;;;;;;;;;;;;;5109637;27;20171;-78
2023/08/02 01:02:57;;;;;;;13.00;5.07;;;;;;;;;;5125405;27;20018;-78
2023/08/02 01:05:25;;;;;;;13.10;4.47;;;;;;;;;;5119857;27;20039;-77
2023/08/02 01:08:01;;;;;;;15.85;4.43;;;;;;;;;;5114887;27;20043;-77
2023/08/02 01:11:03;;;;;;;17.63;4.30;;;;;;;;;;5096382;27;20116;-78
2023/08/02 01:13:31;;;;;;;11.50;4.20;;;;;;;;;;5028655;28;20453;-77
2023/08/02 01:15:58;;;;;;;15.18;4.30;;;;;;;;;;5088655;27;20446;-79
2023/08/02 01:18:24;;;;;;;15.35;4.70;;;;;;;;;;5108117;27;20090;-79
2023/08/02 01:20:50;;;;;;;16.10;4.50;;;;;;;;;;5089296;27;20145;-78
2023/08/02 01:23:16;;;;;;;14.70;4.85;;;;;;;;;;5125023;27;20068;-80
2023/08/02 01:25:42;;;;;;;;;;;;;;;;;;5092360;27;20031;-79
2023/08/02 01:28:13;;;;;;;16.00;4.55;;;;;;;;;;5102573;27;19930;-79
2023/08/02 01:30:39;;;;;;;15.63;5.25;;;;;;;;;;5117520;27;20054;-79
2023/08/02 01:33:06;;;;;;;13.43;4.47;;;;;;;;;;5125459;27;20488;-78
2023/08/02 01:35:31;;;;;;;;;;;;;;;;;;5108949;27;20093;-78
2023/08/02 01:37:58;;;;;;;20.02;4.72;;;;;;;;;;5125345;27;19923;-79
2023/08/02 01:40:24;;;;;;;18.23;4.97;;;;;;;;;;5125937;27;20058;-84
2023/08/02 01:42:50;;;;;;;17.20;4.35;;;;;;;;;;5120843;27;20047;-79
2023/08/02 01:45:16;;;;;;;;;;;;;;;;;;5125121;27;20506;-79
2023/08/02 01:47:42;;;;;;;15.20;4.45;;;;;;;;;;5120544;27;19919;-79
2023/08/02 01:50:08;;;;;;;;;;;;;;;;;;5099057;27;20100;-79
2023/08/02 01:52:34;;;;;;;16.05;4.40;;;;;;;;;;5098213;27;19924;-79
2023/08/02 01:55:00;;;;;;;;;;;;;;;;;;5097984;27;20139;-79
2023/08/02 01:57:26;;;;;;;16.75;4.78;;;;;;;;;;5098093;27;20009;-83
2023/08/02 01:59:52;;;;;;;;;;;;;;;;;;5090555;28;20458;-78
2023/08/02 02:02:18;;;;;;;15.55;5.05;;;;;;;;;;5078685;28;19970;-78
2023/08/02 02:04:44;;;;;;;;;;;;;;;;;;5078059;28;20056;-78
2023/08/02 02:07:10;;;;;;;19.42;5.40;;;;;;;;;;5095055;28;19965;-78
2023/08/02 02:09:36;;;;;;;;;;;;;;;;;;5094394;28;20051;-79
2023/08/02 02:12:02;;;;;;;17.90;5.90;;;;;;;;;;5113018;27;19926;-78
2023/08/02 02:14:28;;;;;;;16.77;5.35;;;;;;;;;;5096446;27;20043;-82
2023/08/02 02:16:54;;;;;;;;;;;;;;;;;;5098750;27;20373;-78
2023/08/02 02:19:20;;;;;;;18.13;6.00;;;;;;;;;;5095724;27;19965;-79
2023/08/02 02:21:46;;;;;;;;;;;;;;;;;;5093329;28;20055;-78
2023/08/02 02:24:12;;;;;;;23.98;5.75;;;;;;;;;;5094203;28;19920;-78
2023/08/02 02:26:38;;;;;;;;;;;;;;;;;;5094699;28;20047;-79
2023/08/02 02:29:04;;;;;;;13.63;4.93;;;;;;;;;;5092273;28;19924;-78
2023/08/02 02:31:30;;;;;;;;;;;;;;;;;;5062217;27;20063;-79
2023/08/02 02:33:56;;;;;;;24.38;5.60;;;;;;;;;;5094399;28;20056;-79
2023/08/02 02:36:22;;;;;;;;;;;;;;;;;;5095331;28;20039;-78
2023/08/02 02:38:49;;;;;;;15.27;4.72;;;;;;;;;;5093473;28;19976;-78
2023/08/02 02:41:15;;;;;;;19.85;5.60;;;;;;;;;;5094315;28;20403;-78
2023/08/02 02:43:41;;;;;;;15.95;5.20;;;;;;;;;;5105673;27;20513;-78
2023/08/02 02:46:07;;;;;;;;;;;;;;;;;;5098083;27;20043;-78
2023/08/02 02:48:33;;;;;;;19.88;5.30;;;;;;;;;;5113942;27;19919;-78
2023/08/02 02:50:59;;;;;;;;;;;;;;;;;;5098986;28;20051;-79
2023/08/02 02:53:25;;;;;;;13.98;4.68;;;;;;;;;;5093630;28;19919;-78
2023/08/02 02:55:56;;;;;;;;;;;;;;;;;;5060384;28;20044;-78
2023/08/02 02:58:22;;;;;;;32.72;5.97;;;;;;;;;;5111713;27;19945;-78
2023/08/02 03:00:48;;;;;;;;;;;;;;;;;;5080585;27;20120;-80
2023/08/02 03:03:14;;;;;;;18.27;5.57;;;;;;;;;;5114147;27;20584;-78
2023/08/02 03:05:40;;;;;;;;;;;;;;;;;;5079247;27;20468;-79
2023/08/02 03:08:06;;;;;;;15.82;5.47;;;;;;;;;;5093055;27;19973;-78
2023/08/02 03:10:32;;;;;;;;;;;;;;;;;;5093545;28;20121;-83
2023/08/02 03:12:58;;;;;;;21.10;5.93;;;;;;;;;;5079805;28;20010;-79
2023/08/02 03:15:24;;;;;;;18.67;6.18;;;;;;;;;;5105124;27;20045;-79
2023/08/02 03:17:50;;;;;;;20.60;5.85;;;;;;;;;;5096054;27;20388;-79
2023/08/02 03:20:16;;;;;;;21.92;6.70;;;;;;;;;;5074627;28;20497;-78
2023/08/02 03:22:42;;;;;;;;;;;;;;;;;;5106693;27;20039;-78
2023/08/02 03:25:08;;;;;;;21.88;6.18;;;;;;;;;;5113914;27;20014;-78
2023/08/02 03:27:34;;;;;;;;;;;;;;;;;;5097187;28;20043;-82
2023/08/02 03:30:00;;;;;;;13.20;6.25;;;;;;;;;;5102028;28;19945;-78
2023/08/02 03:32:26;;;;;;;;;;;;;;;;;;5091897;28;20117;-78
2023/08/02 03:34:52;;;;;;;19.80;6.97;;;;;;;;;;5092959;28;19919;-78
2023/08/02 03:37:18;;;;;;;;;;;;;;;;;;5110955;28;20126;-78
2023/08/02 03:39:44;;;;;;;18.60;7.75;;;;;;;;;;5091857;28;20037;-78
2023/08/02 03:42:10;;;;;;;;;;;;;;;;;;5094688;28;20457;-78
2023/08/02 03:44:36;;;;;;;24.15;8.65;;;;;;;;;;5112219;28;19933;-83
2023/08/02 03:47:02;;;;;;;;;;;;;;;;;;5097504;28;20054;-78
2023/08/02 03:49:28;;;;;;;20.80;7.68;;;;;;;;;;5113525;28;19919;-77
2023/08/02 03:51:54;;;;;;;;;;;;;;;;;;5111960;28;20077;-79
2023/08/02 03:54:20;;;;;;;21.70;7.97;;;;;;;;;;5113251;28;19924;-78
2023/08/02 03:56:46;;;;;;;22.48;8.50;;;;;;;;;;5113154;28;20053;-78
2023/08/02 03:59:12;;;;;;;;;;;;;;;;;;5111239;28;20043;-78
2023/08/02 04:01:38;;;;;;;18.15;8.13;;;;;;;;;;5093051;28;19920;-79
2023/08/02 04:04:04;;;;;;;;;;;;;;;;;;5076913;28;20090;-78
2023/08/02 04:06:30;;;;;;;19.33;7.50;;;;;;;;;;5099677;28;19971;-78
2023/08/02 04:08:56;;;;;;;;;;;;;;;;;;5079593;28;20134;-78
2023/08/02 04:11:22;;;;;;;24.35;6.93;;;;;;;;;;5096280;28;20027;-78
2023/08/02 04:13:48;;;;;;;;;;;;;;;;;;5112365;28;20471;-79
2023/08/02 04:16:14;;;;;;;16.73;7.30;;;;;;;;;;5113523;28;19962;-77
2023/08/02 04:18:41;;;;;;;20.77;6.93;;;;;;;;;;5111515;28;20445;-78
2023/08/02 04:21:07;;;;;;;25.00;7.47;;;;;;;;;;5092939;28;20051;-79
2023/08/02 04:23:33;;;;;;;20.02;7.68;;;;;;;;;;5093827;28;20044;-78
2023/08/02 04:25:59;;;;;;;;;;;;;;;;;;5076190;28;20042;-77
2023/08/02 04:28:25;;;;;;;14.77;7.30;;;;;;;;;;5074885;28;19924;-77
2023/08/02 04:30:51;;;;;;;;;;;;;;;;;;5075758;28;20464;-78
2023/08/02 04:33:17;;;;;;;20.35;7.43;;;;;;;;;;5092750;28;20384;-77
2023/08/02 04:35:43;;;;;;;;;;;;;;;;;;5076099;28;20086;-78
2023/08/02 04:38:09;;;;;;;21.30;7.60;;;;;;;;;;5109288;28;19981;-78
2023/08/02 04:40:35;;;;;;;;;;;;;;;;;;5098520;28;20044;-77
2023/08/02 04:43:01;;;;;;;14.35;6.57;;;;;;;;;;5097512;28;19919;-78
2023/08/02 04:45:28;;;;;;;;;;;;;;;;;;5096865;28;20488;-78
2023/08/02 04:47:54;;;;;;;16.80;6.30;;;;;;;;;;5112694;28;20283;-79
2023/08/02 04:50:20;;;;;;;14.10;6.47;;;;;;;;;;5112986;28;20130;-78
2023/08/02 04:52:46;;;;;;;14.98;6.18;;;;;;;;;;5096878;27;20039;-79
2023/08/02 04:55:12;;;;;;;;;;;;;;;;;;5099866;27;20039;-78
2023/08/02 04:57:38;;;;;;;18.95;5.80;;;;;;;;;;5109258;28;19943;-81
2023/08/02 05:00:04;;;;;;;;;;;;;;;;;;5081246;27;20104;-79
2023/08/02 05:02:34;;;;;;;12.48;5.80;;;;;;;;;;5113301;28;19923;-78
2023/08/02 05:05:01;;;;;;;13.52;6.00;;;;;;;;;;5078602;28;20305;-78
2023/08/02 05:07:27;;;;;;;12.15;5.57;;;;;;;;;;5113867;27;20083;-78
2023/08/02 05:09:53;;;;;;;;;;;;;;;;;;5099029;27;20468;-78
2023/08/02 05:12:19;;;;;;;12.38;5.63;;;;;;;;;;5116609;27;19927;-78
2023/08/02 05:14:45;;;;;;;14.20;5.95;;;;;;;;;;5097947;27;20053;-78
2023/08/02 05:17:11;;;;;;;12.38;4.95;;;;;;;;;;5099597;27;20047;-77
2023/08/02 05:19:37;;;;;;;;;;;;;;;;;;5105293;28;20046;-78
2023/08/02 05:22:03;;;;;;;10.10;5.30;;;;;;;;;;5095456;28;19919;-78
2023/08/02 05:24:29;;;;;;;14.20;6.20;;;;;;;;;;5078632;28;20040;-79
2023/08/02 05:26:55;;;;;;;10.35;4.85;;;;;;;;;;5095435;28;20388;-77
2023/08/02 05:29:22;;;;;;;;;;;;;;;;;;5110391;27;20496;-79
2023/08/02 05:31:48;;;;;;;12.23;5.53;;;;;;;;;;5093602;27;19932;-78
2023/08/02 05:34:14;;;;;;;;;;;;;;;;;;5099450;27;20138;-78
2023/08/02 05:36:40;;;;;;;15.30;4.82;;;;;;;;;;5099396;28;19970;-78
2023/08/02 05:39:06;;;;;;;;;;;;;;;;;;5107629;27;20058;-78
2023/08/02 05:41:32;;;;;;;11.23;4.53;;;;;;;;;;5098439;27;19923;-78
2023/08/02 05:43:58;;;;;;;;;;;;;;;;;;5097486;27;20046;-78
2023/08/02 05:46:24;;;;;;;8.77;4.65;;;;;;;;;;5115679;27;19927;-78
2023/08/02 05:48:50;;;;;;;;;;;;;;;;;;5098739;27;20130;-78
2023/08/02 05:51:16;;;;;;;11.07;5.00;;;;;;;;;;5098642;27;20007;-77
2023/08/02 05:53:42;;;;;;;;;;;;;;;;;;5115800;27;20054;-76
2023/08/02 05:56:08;;;;;;;9.15;4.78;;;;;;;;;;5114955;27;19927;-76
2023/08/02 05:58:34;;;;;;;;;;;;;;;;;;5113490;27;20047;-76
2023/08/02 06:01:00;;;;;;;11.63;4.68;;;;;;;;;;5098680;28;20019;-76
2023/08/02 06:03:26;;;;;;;;;;;;;;;;;;5095505;28;20365;-76
2023/08/02 06:05:52;;;;;;;12.98;5.10;;;;;;;;;;5077531;28;20024;-75
2023/08/02 06:08:18;;;;;;;;;;;;;;;;;;5095219;28;20401;-76
2023/08/02 06:10:44;;;;;;;13.50;5.60;;;;;;;;;;5077703;28;19923;-76
2023/08/02 06:13:10;;;;;;;;;;;;;;;;;;5103433;27;20507;-76
2023/08/02 06:15:36;;;;;;;8.60;4.20;;;;;;;;;;5097997;27;20380;-75
2023/08/02 06:18:02;;;;;;;;;;;;;;;;;;5115093;27;20130;-76
2023/08/02 06:20:28;;;;;;;9.23;4.40;;;;;;;;;;5112030;27;20060;-79
2023/08/02 06:22:54;;;;;;;;;;;;;;;;;;5112749;27;20054;-77
2023/08/02 06:25:20;;;;;;;12.38;3.75;;;;;;;;;;5097495;27;19919;-78
2023/08/02 06:27:46;;;;;;;;;;;;;;;;;;5107908;28;20052;-77
2023/08/02 06:30:13;;;;;;;7.07;3.60;;;;;;;;;;5093849;28;19919;-78
2023/08/02 06:32:39;;;;;;;10.35;3.88;;;;;;;;;;5081043;27;20097;-78
2023/08/02 06:35:05;;;;;;;;;;;;;;;;;;5097104;27;20073;-78
2023/08/02 06:37:31;;;;;;;11.35;4.20;;;;;;;;;;5110966;28;20356;-77
2023/08/02 06:39:57;;;;;;;;;;;;;;;;;;5127700;27;20039;-77
2023/08/02 06:42:23;;;;;;;12.55;4.32;;;;;;;;;;5104651;28;19923;-77
2023/08/02 06:44:49;;;;;;;;;;;;;;;;;;5103714;28;20090;-83
2023/08/02 06:47:15;;;;;;;12.23;4.10;;;;;;;;;;5096452;27;19962;-78
2023/08/02 06:49:41;;;;;;;;;;;;;;;;;;5114613;27;20050;-78
2023/08/02 06:52:07;;;;;;;8.52;4.25;;;;;;;;;;5081954;28;19924;-79
2023/08/02 06:54:33;;;;;;;12.73;4.10;;;;;;;;;;5076912;28;20043;-77
2023/08/02 06:56:59;;;;;;;;;;;;;;;;;;5095772;27;20047;-77
2023/08/02 06:59:25;;;;;;;9.85;3.33;;;;;;;;;;5112703;27;19919;-78
2023/08/02 07:01:51;;;;;;;;;;;;;;;;;;5097609;27;20464;-82
2023/08/02 07:04:17;;;;;;;8.30;3.42;;;;;;;;;;5114061;27;19919;-78
2023/08/02 07:06:43;;;;;;;9.75;4.07;;;;;;;;;;5114276;27;20046;-79
2023/08/02 07:09:10;;;;;;;8.02;3.08;;;;;;;;;;5115639;27;20047;-79
2023/08/02 07:11:36;;;;;;;;;;;;;;;;;;5094111;28;20054;-80
2023/08/02 07:14:02;;;;;;;7.28;3.08;;;;;;;;;;5115473;27;19919;-78
2023/08/02 07:16:28;;;;;;;;;;;;;;;;;;5113565;27;20042;-78
2023/08/02 07:18:54;;;;;;;11.80;2.90;;;;;;;;;;5113652;27;20279;-81
2023/08/02 07:21:20;;;;;;;7.45;2.80;;;;;;;;;;5099751;27;20083;-75
2023/08/02 07:23:46;;;;;;;;;;;;;;;;;;5114347;28;20047;-75
2023/08/02 07:26:12;;;;;;;8.75;3.20;;;;;;;;;;5113231;27;20770;-68
2023/08/02 07:28:38;;;;;;;;;;;;;;;;;;5110241;27;20385;-77
2023/08/02 07:31:08;;;;;;;7.00;3.08;;;;;;;;;;5109261;27;19930;-76
2023/08/02 07:33:34;;;;;;;6.25;2.92;;;;;;;;;;5123625;27;20060;-76
2023/08/02 07:36:00;;;;;;;;;;;;;;;;;;5106861;27;20437;-75
2023/08/02 07:38:26;;;;;;;7.83;3.30;;;;;;;;;;5122870;27;20364;-77
2023/08/02 07:40:52;;;;;;;;;;;;;;;;;;5105125;28;20460;-75
2023/08/02 07:43:18;;;;;;;10.85;3.35;;;;;;;;;;5111930;28;20002;-75
2023/08/02 07:45:44;;;;;;;;;;;;;;;;;;5132317;28;20051;-77
2023/08/02 07:48:11;;;;;;;7.90;2.88;;;;;;;;;;5107038;28;19930;-77
2023/08/02 07:50:37;;;;;;;10.00;3.45;;;;;;;;;;5087636;28;20055;-77
2023/08/02 07:53:03;;;;;;;;;;;;;;;;;;5113729;28;20446;-77
2023/08/02 07:55:29;;;;;;;7.15;2.90;;;;;;;;;;5113725;28;19927;-77
2023/08/02 07:57:55;;;;;;;;;;;;;;;;;;5112388;28;20055;-76
2023/08/02 08:00:21;;;;;;;7.03;3.47;;;;;;;;;;5113054;28;19919;-75
2023/08/02 08:02:47;;;;;;;;;;;;;;;;;;5114074;28;20086;-76
2023/08/02 08:05:13;;;;;;;8.35;3.38;;;;;;;;;;5113114;28;19970;-78
2023/08/02 08:07:39;;;;;;;;;;;;;;;;;;5097588;28;20051;-78
2023/08/02 08:10:05;;;;;;;9.13;3.60;;;;;;;;;;5110218;27;19955;-78
2023/08/02 08:12:31;;;;;;;10.65;4.00;;;;;;;;;;5086556;28;20051;-77
2023/08/02 08:14:57;;;;;;;;;;;;;;;;;;5106749;28;20082;-77
2023/08/02 08:17:23;;;;;;;8.00;3.33;;;;;;;;;;5087697;28;19988;-78
2023/08/02 08:19:49;;;;;;;;;;;;;;;;;;5094934;28;20066;-79
2023/08/02 08:22:15;;;;;;;7.53;3.90;;;;;;;;;;5099579;28;20281;-77
2023/08/02 08:24:41;;;;;;;9.15;3.80;;;;;;;;;;5094896;27;20130;-80
2023/08/02 08:27:07;;;;;;;6.88;3.58;;;;;;;;;;5113121;27;20035;-79
2023/08/02 08:29:33;;;;;;;;;;;;;;;;;;5093495;27;20043;-78
2023/08/02 08:31:59;;;;;;;8.18;3.47;;;;;;;;;;5104101;28;20040;-79
2023/08/02 08:34:25;;;;;;;;;;;;;;;;;;5095735;27;20092;-78
2023/08/02 08:36:51;;;;;;;5.97;3.05;;;;;;;;;;5099428;27;20363;-81
2023/08/02 08:39:18;;;;;;;;;;;;;;;;;;5084304;27;20069;-78
2023/08/02 08:41:44;;;;;;;5.85;3.20;;;;;;;;;;5090840;28;19919;-78
2023/08/02 08:44:10;;;;;;;8.23;3.88;;;;;;;;;;5093188;27;20452;-78
2023/08/02 08:46:36;;;;;;;;;;;;;;;;;;5117003;27;20043;-80
2023/08/02 08:49:03;;;;;;;9.45;3.58;;;;;;;;;;5109437;27;19949;-84
2023/08/02 08:51:35;;;;;;;7.75;3.45;;;;;;;;;;5102987;28;20046;-79
2023/08/02 08:54:06;;;;;;;8.88;3.92;;;;;;;;;;5097355;27;20130;-78
2023/08/02 08:56:35;;;;;;;8.25;3.53;;;;;;;;;;5111079;27;20047;-79
2023/08/02 08:59:01;;;;;;;8.25;3.40;;;;;;;;;;5097493;27;20100;-78
2023/08/02 09:01:28;;;;;;;11.77;4.00;;;;;;;;;;5094490;28;20036;-78
2023/08/02 09:03:56;;;;;;;6.10;3.20;;;;;;;;;;5111975;27;20416;-79
2023/08/02 09:06:23;;;;;;;7.32;3.45;;;;;;;;;;5100560;27;20127;-78
2023/08/02 09:08:49;;;;;;;7.05;3.15;;;;;;;;;;5096657;27;20097;-78
2023/08/02 09:11:18;;;;;;;;;;;;;;;;;;5098322;27;20059;-74
2023/08/02 09:13:44;;;;;;;6.90;3.35;;;;;;;;;;5094647;28;19924;-75
2023/08/02 09:16:10;;;;;;;;;;;;;;;;;;5106894;27;20066;-76
2023/08/02 09:18:40;;;;;;;6.60;3.45;;;;;;;;;;5088257;27;20307;-78
2023/08/02 09:21:07;;;;;;;7.75;3.60;;;;;;;;;;5115938;27;20035;-81
2023/08/02 09:23:33;;;;;;;11.70;4.40;;;;;;;;;;5081515;27;20138;-77
2023/08/02 09:26:19;;;;;;;8.43;3.60;;;;;;;;;;5112510;27;20043;-83
2023/08/02 09:29:00;;;;;;;10.68;3.88;;;;;;;;;;5077780;28;20126;-77
2023/08/02 09:31:27;;;;;;;8.27;4.07;;;;;;;;;;5094305;28;20056;-79
2023/08/02 09:33:54;;;;;;;7.80;4.22;;;;;;;;;;5094797;28;20395;-78
2023/08/02 09:36:31;;;;;;;8.27;4.40;;;;;;;;;;5093204;28;20040;-77
2023/08/02 09:39:01;;;;;;;9.60;4.18;;;;;;;;;;5094740;27;20093;-79
2023/08/02 09:41:28;;;;;;;8.77;3.55;;;;;;;;;;5093721;28;20148;-78
2023/08/02 09:43:54;;;;;;;9.73;3.83;;;;;;;;;;5107624;27;20055;-78
2023/08/02 09:46:31;;;;;;;6.80;3.45;;;;;;;;;;5102266;28;20058;-77
2023/08/02 09:49:00;;;;;;;9.02;3.72;;;;;;;;;;5091064;27;20039;-76
2023/08/02 09:51:39;;;;;;;8.32;3.58;;;;;;;;;;5114830;27;20043;-77
2023/08/02 09:54:05;;;;;;;6.10;3.38;;;;;;;;;;5094421;28;20054;-77
2023/08/02 09:56:31;;;;;;;;;;;;;;;;;;5109675;27;20055;-77
2023/08/02 09:58:58;;;;;;;6.05;3.08;;;;;;;;;;5081211;28;19935;-78
2023/08/02 10:01:25;;;;;;;9.43;3.38;;;;;;;;;;5112068;27;20043;-79
2023/08/02 10:03:57;;;;;;;6.32;3.25;;;;;;;;;;5094424;28;20451;-77
2023/08/02 10:06:29;;;;;;;6.63;3.20;;;;;;;;;;5096212;27;20404;-76
2023/08/02 10:08:58;;;;;;;6.07;3.25;;;;;;;;;;5110162;27;20085;-77
2023/08/02 10:11:25;;;;;;;7.03;3.50;;;;;;;;;;5077491;27;20047;-79
2023/08/02 10:13:52;;;;;;;6.78;3.40;;;;;;;;;;5097014;27;20066;-78
2023/08/02 10:16:19;;;;;;;5.50;2.72;;;;;;;;;;5100991;27;20480;-77
2023/08/02 10:18:46;;;;;;;6.10;3.25;;;;;;;;;;5114855;27;20100;-77
2023/08/02 10:21:12;;;;;;;4.93;3.22;;;;;;;;;;5095174;27;20040;-82
2023/08/02 10:23:39;;;;;;;6.32;3.05;;;;;;;;;;5083600;28;20051;-77
2023/08/02 10:26:06;;;;;;;4.60;2.42;;;;;;;;;;5108548;27;20454;-78
2023/08/02 10:28:32;;;;;;;4.88;2.50;;;;;;;;;;5079040;28;20050;-78
2023/08/02 10:30:59;;;;;;;3.15;2.15;;;;;;;;;;5093528;27;20055;-78
2023/08/02 10:33:27;;;;;;;4.28;2.47;;;;;;;;;;5076725;28;20591;-78
2023/08/02 10:35:53;;;;;;;3.85;2.20;;;;;;;;;;5098707;27;20151;-78
2023/08/02 10:38:19;;;;;;;;;;;;;;;;;;5110500;27;20408;-77
2023/08/02 10:41:05;;;;;;;3.78;2.30;;;;;;;;;;5112442;27;19919;-79
2023/08/02 10:43:31;;;;;;;3.42;2.05;;;;;;;;;;5090903;28;20043;-77
2023/08/02 10:46:16;;;;;;;4.65;2.22;;;;;;;;;;5077803;28;20481;-80
2023/08/02 10:48:43;;;;;;;3.38;2.15;;;;;;;;;;5086219;27;20075;-78
2023/08/02 10:51:08;;;;;;;;;;;;;;;;;;5088830;27;20051;-78
2023/08/02 10:53:35;;;;;;;3.33;1.85;;;;;;;;;;5115905;27;20471;-78
2023/08/02 11:01:14;;;;;;;3.67;2.10;;;;;;;;;;5485059;22;20055;-83
2023/08/02 11:03:40;;;;;;;3.45;2.13;;;;;;;;;;4950921;28;20055;-78
2023/08/02 11:06:06;;;;;;;4.38;2.20;;;;;;;;;;4947826;28;20047;-78
2023/08/02 11:08:45;;;;;;;2.97;2.08;;;;;;;;;;4980036;28;20051;-79
2023/08/02 11:11:11;;;;;;;4.03;2.25;;;;;;;;;;4954960;28;20078;-79
2023/08/02 11:13:38;;;;;;;;;;;;;;;;;;4968250;28;20475;-78
2023/08/02 11:16:05;;;;;;;3.75;2.20;;;;;;;;;;4946838;28;19926;-77
2023/08/02 11:18:32;;;;;;;4.40;1.80;;;;;;;;;;4970972;28;20719;-77
2023/08/02 11:21:11;;;;;;;1.80;1.55;;;;;;;;;;4981803;28;20046;-82
2023/08/02 11:23:37;;;;;;;1.90;1.60;;;;;;;;;;4980523;28;20492;-79
2023/08/02 11:26:09;;;;;;;3.25;1.80;;;;;;;;;;4977373;28;20078;-77
2023/08/02 11:28:49;;;;;;;2.20;1.70;;;;;;;;;;4982216;28;20105;-77
2023/08/02 11:31:16;;;;;;;2.17;1.70;;;;;;;;;;4952460;28;20078;-78
2023/08/02 11:33:42;;;;;;;2.50;1.90;;;;;;;;;;4982140;28;20047;-77
2023/08/02 11:36:08;;;;;;;2.95;2.00;;;;;;;;;;4943551;29;20055;-78
2023/08/02 11:38:34;;;;;;;;;;;;;;;;;;4979107;28;20090;-77
2023/08/02 11:41:00;;;;;;;3.08;2.05;;;;;;;;;;4988620;28;19977;-83
2023/08/02 11:43:26;;;;;;;;;;;;;;;;;;4981380;28;20057;-78
2023/08/02 11:45:52;;;;;;;3.45;2.30;;;;;;;;;;4974530;28;19930;-78
2023/08/02 11:48:25;;;;;;;4.60;2.28;;;;;;;;;;4952081;28;20531;-79
2023/08/02 11:50:51;;;;;;;3.85;2.38;;;;;;;;;;4990962;28;20174;-77
2023/08/02 11:53:17;;;;;;;2.80;1.98;;;;;;;;;;4955072;28;20047;-76
2023/08/02 11:55:43;;;;;;;;;;;;;;;;;;4987062;28;20078;-76
2023/08/02 11:58:09;;;;;;;3.13;2.35;;;;;;;;;;4968730;28;19929;-75
2023/08/02 12:00:36;;;;;;;3.60;2.50;;;;;;;;;;4979879;28;20101;-78
2023/08/02 12:03:09;;;;;;;4.03;2.45;;;;;;;;;;4969736;28;20092;-77
2023/08/02 12:05:35;;;;;;;2.22;1.88;;;;;;;;;;4970532;28;20050;-78
2023/08/02 12:08:00;;;;;;;;;;;;;;;;;;4970807;28;20043;-78
2023/08/02 12:10:30;;;;;;;3.85;2.65;;;;;;;;;;4967096;28;19980;-77
2023/08/02 12:12:56;;;;;;;2.53;2.10;;;;;;;;;;4969377;28;20085;-78
2023/08/02 12:15:22;;;;;;;2.10;1.90;;;;;;;;;;4989925;28;20051;-78
2023/08/02 12:18:01;;;;;;;3.75;2.78;;;;;;;;;;4981826;28;20154;-78
2023/08/02 12:20:31;;;;;;;3.63;2.92;;;;;;;;;;4956333;28;20042;-78
2023/08/02 12:22:57;;;;;;;6.82;2.97;;;;;;;;;;4950209;28;20113;-75
2023/08/02 12:25:23;;;;;;;;;;;;;;;;;;4963923;28;20106;-77
2023/08/02 12:28:04;;;;;;;2.90;2.15;;;;;;;;;;4973773;28;20368;-78
2023/08/02 12:30:30;;;;;;;3.33;2.70;;;;;;;;;;4987206;28;20047;-76
2023/08/02 12:32:57;;;;;;;3.25;1.90;;;;;;;;;;4970427;28;20058;-76
2023/08/02 12:35:23;;;;;;;4.97;2.88;;;;;;;;;;4970180;28;20763;-76
2023/08/02 12:37:51;;;;;;;4.20;3.05;;;;;;;;;;4990143;28;20065;-78
2023/08/02 12:40:17;;;;;;;3.47;2.67;;;;;;;;;;4988529;28;20245;-77
2023/08/02 12:42:43;;;;;;;5.18;2.78;;;;;;;;;;4970268;28;20455;-80
2023/08/02 12:45:09;;;;;;;3.75;2.88;;;;;;;;;;4941963;28;20109;-83
2023/08/02 12:47:35;;;;;;;4.57;2.90;;;;;;;;;;4957988;28;20039;-79
2023/08/02 12:50:02;;;;;;;6.05;2.60;;;;;;;;;;4957639;28;20085;-78
2023/08/02 12:52:28;;;;;;;4.13;2.63;;;;;;;;;;4956849;28;20053;-78
2023/08/02 12:54:55;;;;;;;3.95;2.58;;;;;;;;;;4987844;28;20055;-77
2023/08/02 12:57:22;;;;;;;3.95;2.55;;;;;;;;;;4956424;28;20066;-78
2023/08/02 12:59:48;;;;;;;4.38;3.00;;;;;;;;;;4982939;28;20385;-78
2023/08/02 13:02:14;;;;;;;6.38;3.20;;;;;;;;;;4969716;28;20463;-84
2023/08/02 13:04:40;;;;;;;3.55;2.50;;;;;;;;;;4954140;29;20055;-78
2023/08/02 13:07:06;;;;;;;4.35;2.85;;;;;;;;;;4955887;28;20121;-78
2023/08/02 13:09:33;;;;;;;4.95;2.10;;;;;;;;;;4968646;28;20055;-77
2023/08/02 13:12:00;;;;;;;2.72;2.20;;;;;;;;;;4938151;28;20112;-77
2023/08/02 13:14:26;;;;;;;2.83;2.20;;;;;;;;;;4952703;28;20138;-77
2023/08/02 13:16:53;;;;;;;7.53;3.22;;;;;;;;;;4953372;28;20087;-78
2023/08/02 13:19:19;;;;;;;4.97;3.25;;;;;;;;;;4961956;28;20130;-78
2023/08/02 13:21:45;;;;;;;4.40;3.35;;;;;;;;;;4950320;28;20500;-77
2023/08/02 13:24:11;;;;;;;4.88;3.55;;;;;;;;;;4970132;28;20154;-77
2023/08/02 13:26:37;;;;;;;3.17;2.42;;;;;;;;;;4956147;28;20129;-78
2023/08/02 13:29:03;;;;;;;3.53;2.33;;;;;;;;;;4982738;28;20043;-78
2023/08/02 13:31:30;;;;;;;4.13;2.90;;;;;;;;;;4965649;28;20082;-77
2023/08/02 13:33:56;;;;;;;3.45;3.15;;;;;;;;;;4980386;28;20465;-77
2023/08/02 13:36:22;;;;;;;3.25;2.50;;;;;;;;;;4984922;28;20097;-77
2023/08/02 13:38:48;;;;;;;4.82;2.95;;;;;;;;;;4962615;28;20066;-77
2023/08/02 13:41:14;;;;;;;4.93;3.47;;;;;;;;;;4988676;28;20369;-77
2023/08/02 13:43:40;;;;;;;4.10;2.80;;;;;;;;;;4954998;28;20110;-77
2023/08/02 13:46:06;;;;;;;4.75;3.53;;;;;;;;;;4956221;28;20054;-77
2023/08/02 13:48:32;;;;;;;3.35;2.30;;;;;;;;;;4954003;28;20066;-77
2023/08/02 13:50:58;;;;;;;4.72;3.47;;;;;;;;;;4988052;28;20051;-77
2023/08/02 13:53:24;;;;;;;4.15;2.67;;;;;;;;;;4942783;28;20053;-77
2023/08/02 13:55:50;;;;;;;6.05;4.20;;;;;;;;;;4953117;28;20075;-77
2023/08/02 13:58:16;;;;;;;4.32;3.08;;;;;;;;;;4949160;28;20049;-77
2023/08/02 14:00:43;;;;;;;4.80;3.70;;;;;;;;;;4971438;28;20050;-78
2023/08/02 14:03:09;;;;;;;3.97;2.67;;;;;;;;;;4961199;28;20058;-78
2023/08/02 14:05:35;;;;;;;;;;;;;;;;;;4971859;28;20053;-77
2023/08/02 14:08:01;;;;;;;7.07;4.20;;;;;;;;;;4983355;28;19923;-77
2023/08/02 14:10:27;;;;;;;6.45;3.97;;;;;;;;;;4964873;28;20607;-78
2023/08/02 14:12:53;;;;;;;4.30;3.38;;;;;;;;;;4954496;28;20057;-77
2023/08/02 14:15:19;;;;;;;5.25;3.50;;;;;;;;;;4988293;28;20043;-77
2023/08/02 14:17:45;;;;;;;6.30;3.30;;;;;;;;;;4955239;28;20046;-78
2023/08/02 14:20:11;;;;;;;5.38;3.10;;;;;;;;;;4948667;28;20051;-77
2023/08/02 14:22:37;;;;;;;3.30;2.58;;;;;;;;;;4959826;28;20066;-78
2023/08/02 14:25:03;;;;;;;3.55;2.80;;;;;;;;;;4971429;28;20058;-78
2023/08/02 14:27:29;;;;;;;2.58;2.17;;;;;;;;;;4970449;28;20047;-77
2023/08/02 14:29:55;;;;;;;;;;;;;;;;;;4954789;28;20047;-78
2023/08/02 14:32:21;;;;;;;1.83;1.60;;;;;;;;;;4981256;28;19972;-80
2023/08/02 14:34:48;;;;;;;4.28;1.80;;;;;;;;;;4987002;28;20046;-78
2023/08/02 14:37:14;;;;;;;3.55;1.83;;;;;;;;;;4971659;28;20129;-77
2023/08/02 14:39:40;;;;;;;3.22;1.90;;;;;;;;;;4983852;28;20042;-77
2023/08/02 14:42:06;;;;;;;3.75;2.15;;;;;;;;;;4948324;28;20127;-77
2023/08/02 14:44:32;;;;;;;5.55;2.10;;;;;;;;;;4949770;28;20586;-77
2023/08/02 14:46:58;;;;;;;5.18;2.40;;;;;;;;;;4953924;28;20403;-77
2023/08/02 14:49:24;;;;;;;3.50;2.10;;;;;;;;;;4968412;28;20078;-79
2023/08/02 14:51:51;;;;;;;4.68;1.90;;;;;;;;;;4949689;28;20054;-77
2023/08/02 14:54:17;;;;;;;3.90;2.03;;;;;;;;;;4963241;28;20046;-77
2023/08/02 14:56:43;;;;;;;3.45;1.75;;;;;;;;;;4939063;28;20107;-78
2023/08/02 14:59:09;;;;;;;4.38;1.92;;;;;;;;;;4961726;28;20050;-77
2023/08/02 15:01:35;;;;;;;4.20;2.13;;;;;;;;;;4941264;28;20050;-77
2023/08/02 15:04:02;;;;;;;2.35;1.67;;;;;;;;;;4957452;28;20058;-77
2023/08/02 15:06:28;;;;;;;3.88;1.70;;;;;;;;;;4979379;28;20071;-80
2023/08/02 15:08:54;;;;;;;2.22;1.50;;;;;;;;;;4948036;28;20053;-78
2023/08/02 15:11:20;;;;;;;3.75;1.77;;;;;;;;;;4976741;28;20484;-77